Flight Track Log - Related Links

Times and Time Zones

All times are in EDT time to prevent confusion due to time zone crossing. See the N75ZM flight status page for this flight to view local times or setup timezone preferences in your user account.


Time Position Orientation Groundspeed Altitude Reporting Facility
EDT Latitude Longitude Course Direction KTS MPH feet Rate Location/Type
Sun 03:18:54 PM 28.8167 -81.2000 41° Northeast 127 146 1,700  Level Orlando TRACON
Sun 03:21:22 PM 28.8758 -81.2375 331° Northwest 143 165 3,900 833 Climbing Jacksonville Center
Sun 03:22:23 PM 28.8722 -81.2828 265° West 139 160 4,600 639 Climbing Jacksonville Center
Sun 03:23:24 PM 28.8894 -81.3203 298° West 156 180 5,200 595 Climbing Jacksonville Center
Sun 03:24:24 PM 28.9317 -81.3481 330° Northwest 164 189 5,800 595 Climbing Jacksonville Center
Sun 03:25:25 PM 28.9653 -81.3736 326° Northwest 143 165 6,400 645 Climbing Jacksonville Center
Sun 03:26:25 PM 29.0050 -81.3803 352° North 140 161 7,100 645 Climbing Jacksonville Center
Sun 03:27:26 PM 29.0447 -81.3867 352° North 147 169 7,700 492 Climbing Jacksonville Center
Sun 03:28:27 PM 29.0844 -81.3908 355° North 142 163 8,100 470 Climbing Jacksonville Center
Sun 03:29:21 PM 29.1219 -81.3928 357° North 145 167 8,600 522 Climbing Jacksonville Center
Sun 03:30:22 PM 29.1617 -81.3969 355° North 150 173 9,100 298 Climbing Jacksonville Center
Sun 03:31:22 PM 29.2078 -81.4033 353° North 163 188 9,200 50 Climbing Jacksonville Center
Sun 03:32:23 PM 29.2558 -81.4072 356° North 178 205 9,200  Level Jacksonville Center
Sun 03:33:24 PM 29.3061 -81.4136 354° North 179 206 9,200  Level Jacksonville Center
Sun 03:34:24 PM 29.3542 -81.4178 356° North 178 205 9,200  Level Jacksonville Center
Sun 03:35:25 PM 29.4042 -81.4217 356° North 177 204 9,200  Level Jacksonville Center
Sun 03:36:26 PM 29.4586 -81.4281 354° North 178 205 9,200  Level Jacksonville Center
Sun 03:37:26 PM 29.5067 -81.4322 356° North 178 205 9,200  Level Jacksonville Center
Sun 03:38:27 PM 29.5567 -81.4361 356° North 177 204 9,200  Level Jacksonville Center
Sun 03:39:27 PM 29.6069 -81.4425 354° North 176 203 9,200  Level Jacksonville Center
Sun 03:40:28 PM 29.6550 -81.4467 356° North 177 204 9,200 -51 Level Jacksonville Center
Sun 03:41:24 PM 29.6989 -81.4483 358° North 179 206 9,100 -51 Descending Jacksonville Center
Sun 03:42:25 PM 29.7469 -81.4572 351° North 177 204 9,100  Level Jacksonville Center
Sun 03:43:19 PM 29.7928 -81.4589 358° North 177 204 9,100  Level Jacksonville Center
Sun 03:44:14 PM 29.8389 -81.4631 356° North 177 204 9,100 -52 Level Jacksonville Center
Sun 03:45:15 PM 29.8872 -81.4817 342° North 182 209 9,000  Descending Jacksonville Center
Sun 03:46:16 PM 29.9333 -81.5072 334° Northwest 180 207 9,100 49 Climbing Jacksonville Center
Sun 03:47:17 PM 29.9794 -81.5331 334° Northwest 181 208 9,100  Level Jacksonville Center
Sun 03:48:17 PM 30.0258 -81.5611 332° Northwest 182 209 9,100 -50 Level Jacksonville Center
Sun 03:49:18 PM 30.0719 -81.5869 334° Northwest 180 207 9,000  Descending Jacksonville Center
Sun 03:50:43 PM 30.1369 -81.6244 333° Northwest 183 211 9,100  Climbing Jacksonville Center
Sun 03:51:43 PM 30.1792 -81.6503 332° Northwest 182 209 9,000  Descending Jacksonville Center
Sun 03:52:20 PM 30.2064 -81.6644 336° Northwest 180 207 9,100 61 Climbing Jacksonville Center
Sun 03:53:21 PM 30.2503 -81.6903 333° Northwest 179 206 9,100  Level Jacksonville Center
Sun 03:54:22 PM 30.2944 -81.7161 333° Northwest 174 200 9,100  Level Jacksonville Center
Sun 03:55:22 PM 30.3406 -81.7444 332° Northwest 176 203 9,100  Level Jacksonville Center
Sun 03:56:23 PM 30.3847 -81.7681 335° Northwest 178 205 9,100  Level Jacksonville Center
Sun 03:57:24 PM 30.4289 -81.7964 331° Northwest 178 205 9,100  Level Jacksonville Center
Sun 03:58:25 PM 30.4750 -81.8225 334° Northwest 180 207 9,100  Level Jacksonville Center
Sun 03:59:26 PM 30.5192 -81.8483 333° Northwest 181 208 9,100  Level Jacksonville Center
Sun 04:00:26 PM 30.5653 -81.8769 332° Northwest 180 207 9,100 -50 Level Jacksonville Center
Sun 04:01:27 PM 30.6092 -81.9006 335° Northwest 178 205 9,000  Descending Jacksonville Center
Sun 04:02:28 PM 30.6533 -81.9267 333° Northwest 180 207 9,100  Climbing Jacksonville Center
Sun 04:03:30 PM 30.6972 -81.9528 333° Northwest 187 215 9,000  Descending Jacksonville Center
Sun 04:04:30 PM 30.7414 -81.9789 333° Northwest 192 221 9,100  Climbing Jacksonville Center
Sun 04:05:30 PM 30.7917 -81.9931 346° North 187 215 9,000  Descending Jacksonville Center
Sun 04:06:30 PM 30.8378 -82.0094 343° North 182 209 9,100  Climbing Jacksonville Center
Sun 04:07:30 PM 30.8836 -82.0211 348° North 176 203 9,000  Descending Jacksonville Center
Sun 04:08:30 PM 30.9317 -82.0353 346° North 176 203 9,100 50 Climbing Jacksonville Center
Sun 04:09:30 PM 30.9800 -82.0494 346° North 176 203 9,100  Level Jacksonville Center
Sun 04:10:30 PM 31.0281 -82.0633 346° North 176 203 9,100 -50 Level Jacksonville Center
Sun 04:11:30 PM 31.0761 -82.0753 348° North 171 197 9,000  Descending Jacksonville Center
Sun 04:12:30 PM 31.1242 -82.0869 348° North 171 197 9,100  Climbing Jacksonville Center
Sun 04:13:30 PM 31.1722 -82.0986 348° North 171 197 9,000  Descending Jacksonville Center
Sun 04:14:30 PM 31.2183 -82.1128 345° North 171 197 9,100  Climbing Jacksonville Center
Sun 04:15:30 PM 31.2664 -82.1244 348° North 171 197 9,000 -50 Descending Jacksonville Center
Sun 04:16:30 PM 31.3167 -82.1386 346° North 171 197 9,000  Level Jacksonville Center
Sun 04:17:30 PM 31.3667 -82.1456 353° North 183 211 9,000 50 Level Jacksonville Center
Sun 04:18:30 PM 31.4147 -82.1550 350° North 183 211 9,100  Climbing Jacksonville Center
Sun 04:19:30 PM 31.4692 -82.1594 356° North 176 203 9,000 -50 Descending Jacksonville Center
Sun 04:20:30 PM 31.5172 -82.1614 358° North 176 203 9,000  Level Jacksonville Center
Sun 04:21:30 PM 31.5672 -82.1683 353° North 176 203 9,000  Level Jacksonville Center
Sun 04:22:30 PM 31.6111 -82.1706 358° North 176 203 9,000 50 Level Jacksonville Center
Sun 04:23:30 PM 31.6675 -82.1725 358° North 176 203 9,100  Climbing Jacksonville Center
Sun 04:24:30 PM 31.7178 -82.1697 North 176 203 9,000  Descending Jacksonville Center
Sun 04:25:30 PM 31.7678 -82.1667 North 176 203 9,100  Climbing Jacksonville Center
Sun 04:26:30 PM 31.8117 -82.1542 14° North 176 203 9,000  Descending Jacksonville Center
Sun 04:27:30 PM 31.8447 -82.1125 47° Northeast 171 197 9,100  Climbing Jacksonville Center
Sun 04:28:30 PM 31.8736 -82.0583 58° Northeast 177 204 9,000  Descending Jacksonville Center
Sun 04:29:30 PM 31.9025 -82.0117 54° Northeast 182 209 9,100  Climbing Jacksonville Center
Sun 04:30:30 PM 31.9250 -81.9600 63° Northeast 181 208 9,000 -50 Descending Jacksonville Center
Sun 04:31:30 PM 31.9372 -81.9133 73° East 174 200 9,000 50 Level Jacksonville Center
Sun 04:32:30 PM 31.9494 -81.8594 75° East 169 194 9,100  Climbing Jacksonville Center
Sun 04:33:30 PM 31.9636 -81.8028 74° East 159 183 9,000 -50 Descending Jacksonville Center
Sun 04:34:30 PM 31.9756 -81.7511 75° East 159 183 9,000  Level Jacksonville Center
Sun 04:35:30 PM 31.9878 -81.7022 74° East 164 189 9,000  Level Jacksonville Center
Sun 04:37:00 PM 32.0000 -81.6271 75° East  Level FlightAware Approximate

Login

Don't have an account? Register now (free) for customized features, flight alerts, and more!